sensor_id;sensor_type;location;lat;lon;timestamp;temperature;humidity
30999;DHT22;20549;50.042;8.968;2023-05-10T00:00:53;17.60;97.80
30999;DHT22;20549;50.042;8.968;2023-05-10T00:03:20;17.50;97.90
30999;DHT22;20549;50.042;8.968;2023-05-10T00:05:46;17.50;97.80
30999;DHT22;20549;50.042;8.968;2023-05-10T00:08:13;17.40;97.80
30999;DHT22;20549;50.042;8.968;2023-05-10T00:10:39;17.30;97.80
30999;DHT22;20549;50.042;8.968;2023-05-10T00:13:06;17.20;97.90
30999;DHT22;20549;50.042;8.968;2023-05-10T00:15:33;17.20;97.90
30999;DHT22;20549;50.042;8.968;2023-05-10T00:17:59;17.10;98.10
30999;DHT22;20549;50.042;8.968;2023-05-10T00:20:26;17.00;98.30
30999;DHT22;20549;50.042;8.968;2023-05-10T00:22:52;17.00;98.30
30999;DHT22;20549;50.042;8.968;2023-05-10T00:25:19;16.90;98.40
30999;DHT22;20549;50.042;8.968;2023-05-10T00:27:45;16.80;98.50
30999;DHT22;20549;50.042;8.968;2023-05-10T00:30:12;16.80;98.70
30999;DHT22;20549;50.042;8.968;2023-05-10T00:32:39;16.70;98.90
30999;DHT22;20549;50.042;8.968;2023-05-10T00:35:05;16.70;99.00
30999;DHT22;20549;50.042;8.968;2023-05-10T00:37:32;16.70;99.00
30999;DHT22;20549;50.042;8.968;2023-05-10T00:39:58;16.60;99.20
30999;DHT22;20549;50.042;8.968;2023-05-10T00:42:25;16.60;99.20
30999;DHT22;20549;50.042;8.968;2023-05-10T00:44:52;16.60;99.40
30999;DHT22;20549;50.042;8.968;2023-05-10T00:47:18;16.50;99.40
30999;DHT22;20549;50.042;8.968;2023-05-10T00:49:45;16.50;99.50
30999;DHT22;20549;50.042;8.968;2023-05-10T00:52:11;16.50;99.60
30999;DHT22;20549;50.042;8.968;2023-05-10T00:54:38;16.40;99.80
30999;DHT22;20549;50.042;8.968;2023-05-10T00:57:05;16.40;99.90
30999;DHT22;20549;50.042;8.968;2023-05-10T00:59:31;16.40;99.90
30999;DHT22;20549;50.042;8.968;2023-05-10T01:01:58;16.40;99.90
30999;DHT22;20549;50.042;8.968;2023-05-10T01:04:24;16.40;99.90
30999;DHT22;20549;50.042;8.968;2023-05-10T01:06:54;16.40;99.90
30999;DHT22;20549;50.042;8.968;2023-05-10T01:09:21;16.30;99.90
30999;DHT22;20549;50.042;8.968;2023-05-10T01:11:47;16.30;99.90
30999;DHT22;20549;50.042;8.968;2023-05-10T01:14:13;16.30;99.90
30999;DHT22;20549;50.042;8.968;2023-05-10T01:16:40;16.30;99.90
30999;DHT22;20549;50.042;8.968;2023-05-10T01:19:10;16.30;99.90
30999;DHT22;20549;50.042;8.968;2023-05-10T01:21:43;16.30;99.90
30999;DHT22;20549;50.042;8.968;2023-05-10T01:29:53;16.30;99.90
30999;DHT22;20549;50.042;8.968;2023-05-10T01:32:36;16.30;99.90
30999;DHT22;20549;50.042;8.968;2023-05-10T01:35:06;16.30;99.90
30999;DHT22;20549;50.042;8.968;2023-05-10T01:37:44;16.30;99.90
30999;DHT22;20549;50.042;8.968;2023-05-10T01:40:12;16.20;99.90
30999;DHT22;20549;50.042;8.968;2023-05-10T01:42:44;16.20;99.90
30999;DHT22;20549;50.042;8.968;2023-05-10T01:47:37;16.20;99.90
30999;DHT22;20549;50.042;8.968;2023-05-10T01:50:04;16.20;99.90
30999;DHT22;20549;50.042;8.968;2023-05-10T01:52:33;16.20;99.90
30999;DHT22;20549;50.042;8.968;2023-05-10T01:55:04;16.20;99.90
30999;DHT22;20549;50.042;8.968;2023-05-10T01:57:32;16.20;99.90
30999;DHT22;20549;50.042;8.968;2023-05-10T01:59:56;16.10;99.90
30999;DHT22;20549;50.042;8.968;2023-05-10T02:02:22;16.10;99.90
30999;DHT22;20549;50.042;8.968;2023-05-10T02:04:49;16.10;99.90
30999;DHT22;20549;50.042;8.968;2023-05-10T02:07:15;16.10;99.90
30999;DHT22;20549;50.042;8.968;2023-05-10T02:09:44;16.10;99.90
30999;DHT22;20549;50.042;8.968;2023-05-10T02:12:09;16.10;99.90
30999;DHT22;20549;50.042;8.968;2023-05-10T02:14:36;16.10;99.90
30999;DHT22;20549;50.042;8.968;2023-05-10T02:17:02;16.10;99.90
30999;DHT22;20549;50.042;8.968;2023-05-10T02:19:28;16.10;99.90
30999;DHT22;20549;50.042;8.968;2023-05-10T02:21:55;16.10;99.90
30999;DHT22;20549;50.042;8.968;2023-05-10T02:24:22;16.10;99.90
30999;DHT22;20549;50.042;8.968;2023-05-10T02:26:48;16.10;99.90
30999;DHT22;20549;50.042;8.968;2023-05-10T02:29:15;16.10;99.90
30999;DHT22;20549;50.042;8.968;2023-05-10T02:31:41;16.10;99.90
30999;DHT22;20549;50.042;8.968;2023-05-10T02:34:08;16.10;99.90
30999;DHT22;20549;50.042;8.968;2023-05-10T02:36:35;16.10;99.90
30999;DHT22;20549;50.042;8.968;2023-05-10T02:39:01;16.10;99.90
30999;DHT22;20549;50.042;8.968;2023-05-10T02:41:28;16.10;99.90
30999;DHT22;20549;50.042;8.968;2023-05-10T02:43:55;16.00;99.90
30999;DHT22;20549;50.042;8.968;2023-05-10T02:46:21;16.00;99.90
30999;DHT22;20549;50.042;8.968;2023-05-10T02:48:47;16.00;99.90
30999;DHT22;20549;50.042;8.968;2023-05-10T02:51:14;16.00;99.90
30999;DHT22;20549;50.042;8.968;2023-05-10T02:53:41;16.00;99.90
30999;DHT22;20549;50.042;8.968;2023-05-10T02:56:28;16.00;99.90
30999;DHT22;20549;50.042;8.968;2023-05-10T02:58:52;16.00;99.90
30999;DHT22;20549;50.042;8.968;2023-05-10T03:01:18;16.00;99.90
30999;DHT22;20549;50.042;8.968;2023-05-10T03:03:45;16.00;99.90
30999;DHT22;20549;50.042;8.968;2023-05-10T03:06:12;16.00;99.90
30999;DHT22;20549;50.042;8.968;2023-05-10T03:08:38;16.00;99.90
30999;DHT22;20549;50.042;8.968;2023-05-10T03:16:14;16.00;99.90
30999;DHT22;20549;50.042;8.968;2023-05-10T03:18:48;15.90;99.90
30999;DHT22;20549;50.042;8.968;2023-05-10T03:21:11;15.90;99.90
30999;DHT22;20549;50.042;8.968;2023-05-10T03:23:46;15.90;99.90
30999;DHT22;20549;50.042;8.968;2023-05-10T03:26:07;15.90;99.90
30999;DHT22;20549;50.042;8.968;2023-05-10T03:28:33;15.90;99.90
30999;DHT22;20549;50.042;8.968;2023-05-10T03:31:00;15.90;99.90
30999;DHT22;20549;50.042;8.968;2023-05-10T03:33:26;15.90;99.90
30999;DHT22;20549;50.042;8.968;2023-05-10T03:35:53;15.90;99.90
30999;DHT22;20549;50.042;8.968;2023-05-10T03:38:20;15.80;99.90
30999;DHT22;20549;50.042;8.968;2023-05-10T03:40:47;15.90;99.90
30999;DHT22;20549;50.042;8.968;2023-05-10T03:43:13;15.90;99.90
30999;DHT22;20549;50.042;8.968;2023-05-10T03:45:39;15.90;99.90
30999;DHT22;20549;50.042;8.968;2023-05-10T03:48:06;15.80;99.90
30999;DHT22;20549;50.042;8.968;2023-05-10T03:50:33;15.80;99.90
30999;DHT22;20549;50.042;8.968;2023-05-10T03:52:59;15.80;99.90
30999;DHT22;20549;50.042;8.968;2023-05-10T03:55:26;15.80;99.90
30999;DHT22;20549;50.042;8.968;2023-05-10T03:57:52;15.80;99.90
30999;DHT22;20549;50.042;8.968;2023-05-10T04:00:19;15.90;99.90
30999;DHT22;20549;50.042;8.968;2023-05-10T04:02:46;15.90;99.90
30999;DHT22;20549;50.042;8.968;2023-05-10T04:05:12;15.90;99.90
30999;DHT22;20549;50.042;8.968;2023-05-10T04:07:39;15.90;99.90
30999;DHT22;20549;50.042;8.968;2023-05-10T04:10:05;15.90;99.90
30999;DHT22;20549;50.042;8.968;2023-05-10T04:12:32;15.90;99.90
30999;DHT22;20549;50.042;8.968;2023-05-10T04:14:58;15.90;99.90
30999;DHT22;20549;50.042;8.968;2023-05-10T04:17:25;15.90;99.90
30999;DHT22;20549;50.042;8.968;2023-05-10T04:19:52;16.00;99.90
30999;DHT22;20549;50.042;8.968;2023-05-10T04:22:18;16.00;99.90
30999;DHT22;20549;50.042;8.968;2023-05-10T04:24:45;16.00;99.90
30999;DHT22;20549;50.042;8.968;2023-05-10T04:27:11;16.10;99.90
30999;DHT22;20549;50.042;8.968;2023-05-10T04:29:38;16.10;99.90
30999;DHT22;20549;50.042;8.968;2023-05-10T04:32:05;16.10;99.90
30999;DHT22;20549;50.042;8.968;2023-05-10T04:34:31;16.10;99.90
30999;DHT22;20549;50.042;8.968;2023-05-10T04:36:58;16.20;99.90
30999;DHT22;20549;50.042;8.968;2023-05-10T04:39:24;16.20;99.90
30999;DHT22;20549;50.042;8.968;2023-05-10T04:41:51;16.20;99.90
30999;DHT22;20549;50.042;8.968;2023-05-10T04:44:18;16.30;99.90
30999;DHT22;20549;50.042;8.968;2023-05-10T04:46:44;16.30;99.90
30999;DHT22;20549;50.042;8.968;2023-05-10T04:49:11;16.30;99.90
30999;DHT22;20549;50.042;8.968;2023-05-10T04:51:37;16.40;99.90
30999;DHT22;20549;50.042;8.968;2023-05-10T04:54:04;16.50;99.90
30999;DHT22;20549;50.042;8.968;2023-05-10T04:56:30;16.50;99.90
30999;DHT22;20549;50.042;8.968;2023-05-10T04:58:57;16.50;99.90
30999;DHT22;20549;50.042;8.968;2023-05-10T05:01:24;16.60;99.90
30999;DHT22;20549;50.042;8.968;2023-05-10T05:03:50;16.60;99.90
30999;DHT22;20549;50.042;8.968;2023-05-10T05:06:17;16.70;99.90
30999;DHT22;20549;50.042;8.968;2023-05-10T05:08:43;16.70;99.90
30999;DHT22;20549;50.042;8.968;2023-05-10T05:11:10;16.80;99.90
30999;DHT22;20549;50.042;8.968;2023-05-10T05:13:37;16.80;99.90
30999;DHT22;20549;50.042;8.968;2023-05-10T05:16:03;16.90;99.90
30999;DHT22;20549;50.042;8.968;2023-05-10T05:18:30;16.90;99.90
30999;DHT22;20549;50.042;8.968;2023-05-10T05:20:56;17.00;99.90
30999;DHT22;20549;50.042;8.968;2023-05-10T05:23:23;17.00;99.90
30999;DHT22;20549;50.042;8.968;2023-05-10T05:25:53;17.00;99.90
30999;DHT22;20549;50.042;8.968;2023-05-10T05:28:16;17.10;99.90
30999;DHT22;20549;50.042;8.968;2023-05-10T05:30:43;17.10;99.90
30999;DHT22;20549;50.042;8.968;2023-05-10T05:33:09;17.10;99.90
30999;DHT22;20549;50.042;8.968;2023-05-10T05:35:36;17.10;99.90
30999;DHT22;20549;50.042;8.968;2023-05-10T05:38:03;17.20;99.90
30999;DHT22;20549;50.042;8.968;2023-05-10T05:40:29;17.20;99.90
30999;DHT22;20549;50.042;8.968;2023-05-10T05:42:56;17.20;99.90
30999;DHT22;20549;50.042;8.968;2023-05-10T05:45:22;17.20;99.90
30999;DHT22;20549;50.042;8.968;2023-05-10T05:47:49;17.20;99.90
30999;DHT22;20549;50.042;8.968;2023-05-10T05:50:15;17.20;99.90
30999;DHT22;20549;50.042;8.968;2023-05-10T05:52:42;17.30;99.90
30999;DHT22;20549;50.042;8.968;2023-05-10T05:55:09;17.30;99.90
30999;DHT22;20549;50.042;8.968;2023-05-10T05:57:35;17.30;99.90
30999;DHT22;20549;50.042;8.968;2023-05-10T06:00:02;17.40;99.90
30999;DHT22;20549;50.042;8.968;2023-05-10T06:02:28;17.40;99.90
30999;DHT22;20549;50.042;8.968;2023-05-10T06:04:55;17.40;99.90
30999;DHT22;20549;50.042;8.968;2023-05-10T06:07:22;17.40;99.90
30999;DHT22;20549;50.042;8.968;2023-05-10T06:09:48;17.40;99.90
30999;DHT22;20549;50.042;8.968;2023-05-10T06:12:15;17.50;99.90
30999;DHT22;20549;50.042;8.968;2023-05-10T06:14:41;17.50;99.90
30999;DHT22;20549;50.042;8.968;2023-05-10T06:17:08;17.50;99.90
30999;DHT22;20549;50.042;8.968;2023-05-10T06:19:35;17.50;99.90
30999;DHT22;20549;50.042;8.968;2023-05-10T06:22:01;17.60;99.90
30999;DHT22;20549;50.042;8.968;2023-05-10T06:24:28;17.60;99.90
30999;DHT22;20549;50.042;8.968;2023-05-10T06:26:54;17.60;99.90
30999;DHT22;20549;50.042;8.968;2023-05-10T06:29:21;17.70;99.90
30999;DHT22;20549;50.042;8.968;2023-05-10T06:31:47;17.70;99.90
30999;DHT22;20549;50.042;8.968;2023-05-10T06:34:14;17.70;99.90
30999;DHT22;20549;50.042;8.968;2023-05-10T06:36:41;17.70;99.90
30999;DHT22;20549;50.042;8.968;2023-05-10T06:39:07;17.80;99.90
30999;DHT22;20549;50.042;8.968;2023-05-10T06:41:34;17.80;99.90
30999;DHT22;20549;50.042;8.968;2023-05-10T06:44:00;17.80;99.90
30999;DHT22;20549;50.042;8.968;2023-05-10T06:46:27;17.80;99.90
30999;DHT22;20549;50.042;8.968;2023-05-10T06:48:54;17.90;99.90
30999;DHT22;20549;50.042;8.968;2023-05-10T06:51:20;17.90;99.90
30999;DHT22;20549;50.042;8.968;2023-05-10T06:53:47;17.90;99.90
30999;DHT22;20549;50.042;8.968;2023-05-10T06:56:13;18.00;99.90
30999;DHT22;20549;50.042;8.968;2023-05-10T06:58:40;18.00;99.90
30999;DHT22;20549;50.042;8.968;2023-05-10T07:01:07;18.10;99.90
30999;DHT22;20549;50.042;8.968;2023-05-10T07:03:33;18.10;99.90
30999;DHT22;20549;50.042;8.968;2023-05-10T07:06:03;18.20;99.90
30999;DHT22;20549;50.042;8.968;2023-05-10T07:08:32;18.30;99.90
30999;DHT22;20549;50.042;8.968;2023-05-10T07:11:02;18.40;99.90
30999;DHT22;20549;50.042;8.968;2023-05-10T07:13:28;18.50;99.90
30999;DHT22;20549;50.042;8.968;2023-05-10T07:15:54;18.60;99.90
30999;DHT22;20549;50.042;8.968;2023-05-10T07:18:21;18.70;99.90
30999;DHT22;20549;50.042;8.968;2023-05-10T07:20:48;18.80;99.90
30999;DHT22;20549;50.042;8.968;2023-05-10T07:23:14;18.90;99.70
30999;DHT22;20549;50.042;8.968;2023-05-10T07:25:41;18.90;99.60
30999;DHT22;20549;50.042;8.968;2023-05-10T07:28:07;19.00;99.70
30999;DHT22;20549;50.042;8.968;2023-05-10T07:30:34;19.10;99.30
30999;DHT22;20549;50.042;8.968;2023-05-10T07:33:01;19.20;99.00
30999;DHT22;20549;50.042;8.968;2023-05-10T07:35:27;19.30;98.90
30999;DHT22;20549;50.042;8.968;2023-05-10T07:37:54;19.40;98.50
30999;DHT22;20549;50.042;8.968;2023-05-10T07:40:20;19.50;98.30
30999;DHT22;20549;50.042;8.968;2023-05-10T07:42:47;19.60;97.90
30999;DHT22;20549;50.042;8.968;2023-05-10T07:45:14;19.60;97.40
30999;DHT22;20549;50.042;8.968;2023-05-10T07:47:40;19.70;97.60
30999;DHT22;20549;50.042;8.968;2023-05-10T07:50:07;19.80;97.50
30999;DHT22;20549;50.042;8.968;2023-05-10T07:52:34;19.90;97.30
30999;DHT22;20549;50.042;8.968;2023-05-10T07:55:00;20.00;96.80
30999;DHT22;20549;50.042;8.968;2023-05-10T07:57:27;20.10;96.50
30999;DHT22;20549;50.042;8.968;2023-05-10T07:59:53;20.20;95.60
30999;DHT22;20549;50.042;8.968;2023-05-10T08:02:20;20.20;95.10
30999;DHT22;20549;50.042;8.968;2023-05-10T08:04:47;20.30;95.00
30999;DHT22;20549;50.042;8.968;2023-05-10T08:07:13;20.40;94.50
30999;DHT22;20549;50.042;8.968;2023-05-10T08:09:40;20.40;94.10
30999;DHT22;20549;50.042;8.968;2023-05-10T08:12:06;20.40;94.30
30999;DHT22;20549;50.042;8.968;2023-05-10T08:14:33;20.50;94.30
30999;DHT22;20549;50.042;8.968;2023-05-10T08:16:59;20.60;94.10
30999;DHT22;20549;50.042;8.968;2023-05-10T08:19:26;20.70;94.00
30999;DHT22;20549;50.042;8.968;2023-05-10T08:21:53;20.80;93.50
30999;DHT22;20549;50.042;8.968;2023-05-10T08:24:19;20.90;93.20
30999;DHT22;20549;50.042;8.968;2023-05-10T08:26:46;21.00;92.90
30999;DHT22;20549;50.042;8.968;2023-05-10T08:29:13;21.10;92.40
30999;DHT22;20549;50.042;8.968;2023-05-10T08:31:39;21.10;91.80
30999;DHT22;20549;50.042;8.968;2023-05-10T08:34:06;21.20;91.60
30999;DHT22;20549;50.042;8.968;2023-05-10T08:36:32;21.20;90.50
30999;DHT22;20549;50.042;8.968;2023-05-10T08:38:59;21.30;90.30
30999;DHT22;20549;50.042;8.968;2023-05-10T08:41:25;21.30;90.10
30999;DHT22;20549;50.042;8.968;2023-05-10T08:43:55;21.30;90.10
30999;DHT22;20549;50.042;8.968;2023-05-10T08:46:22;21.30;90.00
30999;DHT22;20549;50.042;8.968;2023-05-10T08:48:49;21.40;90.10
30999;DHT22;20549;50.042;8.968;2023-05-10T08:51:18;21.40;90.00
30999;DHT22;20549;50.042;8.968;2023-05-10T08:53:44;21.60;90.00
30999;DHT22;20549;50.042;8.968;2023-05-10T08:56:10;21.70;89.80
30999;DHT22;20549;50.042;8.968;2023-05-10T08:58:37;21.70;88.90
30999;DHT22;20549;50.042;8.968;2023-05-10T09:01:04;21.90;89.60
30999;DHT22;20549;50.042;8.968;2023-05-10T09:03:30;22.00;89.60
30999;DHT22;20549;50.042;8.968;2023-05-10T09:05:57;22.20;89.30
30999;DHT22;20549;50.042;8.968;2023-05-10T09:08:24;22.40;89.10
30999;DHT22;20549;50.042;8.968;2023-05-10T09:10:56;22.60;88.30
30999;DHT22;20549;50.042;8.968;2023-05-10T09:13:19;22.90;87.20
30999;DHT22;20549;50.042;8.968;2023-05-10T09:15:46;23.10;86.10
30999;DHT22;20549;50.042;8.968;2023-05-10T09:18:13;23.30;85.30
30999;DHT22;20549;50.042;8.968;2023-05-10T09:20:39;23.60;84.60
30999;DHT22;20549;50.042;8.968;2023-05-10T09:23:06;23.80;83.90
30999;DHT22;20549;50.042;8.968;2023-05-10T09:25:32;24.00;81.90
30999;DHT22;20549;50.042;8.968;2023-05-10T09:28:01;24.20;79.70
30999;DHT22;20549;50.042;8.968;2023-05-10T09:30:29;24.30;77.90
30999;DHT22;20549;50.042;8.968;2023-05-10T09:32:55;24.40;76.90
30999;DHT22;20549;50.042;8.968;2023-05-10T09:35:22;24.50;76.20
30999;DHT22;20549;50.042;8.968;2023-05-10T09:37:49;24.60;75.70
30999;DHT22;20549;50.042;8.968;2023-05-10T09:40:20;24.70;75.90
30999;DHT22;20549;50.042;8.968;2023-05-10T09:43:03;24.70;75.50
30999;DHT22;20549;50.042;8.968;2023-05-10T09:45:29;24.90;75.30
30999;DHT22;20549;50.042;8.968;2023-05-10T09:47:56;24.90;74.50
30999;DHT22;20549;50.042;8.968;2023-05-10T09:50:22;25.00;73.40
30999;DHT22;20549;50.042;8.968;2023-05-10T09:53:01;25.10;72.50
30999;DHT22;20549;50.042;8.968;2023-05-10T09:58:02;25.10;71.30
30999;DHT22;20549;50.042;8.968;2023-05-10T10:00:33;25.00;70.90
30999;DHT22;20549;50.042;8.968;2023-05-10T10:02:56;24.90;70.60
30999;DHT22;20549;50.042;8.968;2023-05-10T10:05:28;24.90;70.70
30999;DHT22;20549;50.042;8.968;2023-05-10T10:07:55;24.80;70.70
30999;DHT22;20549;50.042;8.968;2023-05-10T10:10:21;24.70;70.70
30999;DHT22;20549;50.042;8.968;2023-05-10T10:12:47;24.70;70.70
30999;DHT22;20549;50.042;8.968;2023-05-10T10:15:14;24.60;70.40
30999;DHT22;20549;50.042;8.968;2023-05-10T10:17:41;24.50;70.90
30999;DHT22;20549;50.042;8.968;2023-05-10T10:20:07;24.50;71.20
30999;DHT22;20549;50.042;8.968;2023-05-10T10:22:34;24.50;71.80
30999;DHT22;20549;50.042;8.968;2023-05-10T10:25:00;24.50;72.20
30999;DHT22;20549;50.042;8.968;2023-05-10T10:30:13;24.70;72.40
30999;DHT22;20549;50.042;8.968;2023-05-10T10:35:23;24.90;71.80
30999;DHT22;20549;50.042;8.968;2023-05-10T10:37:50;24.90;71.70
30999;DHT22;20549;50.042;8.968;2023-05-10T10:40:23;25.00;71.40
30999;DHT22;20549;50.042;8.968;2023-05-10T10:42:49;25.10;70.90
30999;DHT22;20549;50.042;8.968;2023-05-10T10:45:18;25.10;70.40
30999;DHT22;20549;50.042;8.968;2023-05-10T10:47:45;25.20;70.50
30999;DHT22;20549;50.042;8.968;2023-05-10T10:50:11;25.20;69.90
30999;DHT22;20549;50.042;8.968;2023-05-10T10:52:41;25.30;69.20
30999;DHT22;20549;50.042;8.968;2023-05-10T10:57:55;25.20;67.80
30999;DHT22;20549;50.042;8.968;2023-05-10T11:00:34;25.20;68.00
30999;DHT22;20549;50.042;8.968;2023-05-10T11:03:03;25.00;67.90
30999;DHT22;20549;50.042;8.968;2023-05-10T11:07:56;24.70;68.60
30999;DHT22;20549;50.042;8.968;2023-05-10T11:10:22;24.50;68.50
30999;DHT22;20549;50.042;8.968;2023-05-10T11:12:54;24.40;69.10
30999;DHT22;20549;50.042;8.968;2023-05-10T11:15:18;24.20;69.10
30999;DHT22;20549;50.042;8.968;2023-05-10T11:17:44;24.10;69.30
30999;DHT22;20549;50.042;8.968;2023-05-10T11:20:13;24.00;69.70
30999;DHT22;20549;50.042;8.968;2023-05-10T11:22:53;23.90;69.50
30999;DHT22;20549;50.042;8.968;2023-05-10T11:25:22;23.70;69.30
30999;DHT22;20549;50.042;8.968;2023-05-10T11:27:49;23.60;69.80
30999;DHT22;20549;50.042;8.968;2023-05-10T11:30:16;23.60;70.20
30999;DHT22;20549;50.042;8.968;2023-05-10T11:32:42;23.50;70.20
30999;DHT22;20549;50.042;8.968;2023-05-10T11:35:12;23.50;70.30
30999;DHT22;20549;50.042;8.968;2023-05-10T11:37:35;23.40;70.70
30999;DHT22;20549;50.042;8.968;2023-05-10T11:40:02;23.40;70.80
30999;DHT22;20549;50.042;8.968;2023-05-10T11:42:29;23.40;70.80
30999;DHT22;20549;50.042;8.968;2023-05-10T11:44:56;23.40;70.70
30999;DHT22;20549;50.042;8.968;2023-05-10T11:47:22;23.40;70.80
30999;DHT22;20549;50.042;8.968;2023-05-10T11:49:48;23.30;71.00
30999;DHT22;20549;50.042;8.968;2023-05-10T11:52:15;23.40;71.10
30999;DHT22;20549;50.042;8.968;2023-05-10T11:54:51;23.40;71.10
30999;DHT22;20549;50.042;8.968;2023-05-10T11:57:20;23.40;70.70
30999;DHT22;20549;50.042;8.968;2023-05-10T11:59:46;23.40;70.10
30999;DHT22;20549;50.042;8.968;2023-05-10T12:02:13;23.40;69.70
30999;DHT22;20549;50.042;8.968;2023-05-10T12:04:40;23.30;69.20
30999;DHT22;20549;50.042;8.968;2023-05-10T12:07:06;23.20;68.50
30999;DHT22;20549;50.042;8.968;2023-05-10T12:09:33;23.10;68.30
30999;DHT22;20549;50.042;8.968;2023-05-10T12:11:59;23.00;68.20
30999;DHT22;20549;50.042;8.968;2023-05-10T12:14:26;22.80;67.70
30999;DHT22;20549;50.042;8.968;2023-05-10T12:16:52;22.70;68.30
30999;DHT22;20549;50.042;8.968;2023-05-10T12:19:19;22.60;68.60
30999;DHT22;20549;50.042;8.968;2023-05-10T12:21:46;22.50;69.00
30999;DHT22;20549;50.042;8.968;2023-05-10T12:24:12;22.40;69.10
30999;DHT22;20549;50.042;8.968;2023-05-10T12:26:39;22.30;69.40
30999;DHT22;20549;50.042;8.968;2023-05-10T12:29:15;22.30;69.70
30999;DHT22;20549;50.042;8.968;2023-05-10T12:31:57;22.30;69.80
30999;DHT22;20549;50.042;8.968;2023-05-10T12:34:24;22.20;69.60
30999;DHT22;20549;50.042;8.968;2023-05-10T12:36:53;22.20;69.60
30999;DHT22;20549;50.042;8.968;2023-05-10T12:39:19;22.20;69.70
30999;DHT22;20549;50.042;8.968;2023-05-10T12:41:46;22.30;69.70
30999;DHT22;20549;50.042;8.968;2023-05-10T12:44:12;22.30;69.70
30999;DHT22;20549;50.042;8.968;2023-05-10T12:46:39;22.40;69.90
30999;DHT22;20549;50.042;8.968;2023-05-10T12:49:05;22.50;70.50
30999;DHT22;20549;50.042;8.968;2023-05-10T12:51:32;22.70;70.20
30999;DHT22;20549;50.042;8.968;2023-05-10T12:53:58;22.90;70.30
30999;DHT22;20549;50.042;8.968;2023-05-10T12:56:25;23.10;69.70
30999;DHT22;20549;50.042;8.968;2023-05-10T12:58:52;23.40;68.90
30999;DHT22;20549;50.042;8.968;2023-05-10T13:01:18;23.60;68.40
30999;DHT22;20549;50.042;8.968;2023-05-10T13:03:45;23.80;67.90
30999;DHT22;20549;50.042;8.968;2023-05-10T13:06:13;24.00;67.10
30999;DHT22;20549;50.042;8.968;2023-05-10T13:08:38;24.20;66.70
30999;DHT22;20549;50.042;8.968;2023-05-10T13:11:05;24.40;66.00
30999;DHT22;20549;50.042;8.968;2023-05-10T13:13:31;24.60;65.10
30999;DHT22;20549;50.042;8.968;2023-05-10T13:15:58;24.70;64.30
30999;DHT22;20549;50.042;8.968;2023-05-10T13:18:24;24.80;64.00
30999;DHT22;20549;50.042;8.968;2023-05-10T13:20:51;24.90;63.60
30999;DHT22;20549;50.042;8.968;2023-05-10T13:23:18;25.00;63.10
30999;DHT22;20549;50.042;8.968;2023-05-10T13:25:44;25.10;62.30
30999;DHT22;20549;50.042;8.968;2023-05-10T13:28:11;25.20;61.70
30999;DHT22;20549;50.042;8.968;2023-05-10T13:30:37;25.20;61.40
30999;DHT22;20549;50.042;8.968;2023-05-10T13:33:04;25.20;61.20
30999;DHT22;20549;50.042;8.968;2023-05-10T13:35:30;25.20;60.30
30999;DHT22;20549;50.042;8.968;2023-05-10T13:37:57;25.30;61.10
30999;DHT22;20549;50.042;8.968;2023-05-10T13:40:24;25.30;60.70
30999;DHT22;20549;50.042;8.968;2023-05-10T13:42:50;25.40;60.20
30999;DHT22;20549;50.042;8.968;2023-05-10T13:45:17;25.40;60.10
30999;DHT22;20549;50.042;8.968;2023-05-10T13:47:43;25.50;60.20
30999;DHT22;20549;50.042;8.968;2023-05-10T13:50:10;25.50;60.00
30999;DHT22;20549;50.042;8.968;2023-05-10T13:52:37;25.60;59.80
30999;DHT22;20549;50.042;8.968;2023-05-10T13:55:03;25.70;59.60
30999;DHT22;20549;50.042;8.968;2023-05-10T13:57:30;25.80;59.30
30999;DHT22;20549;50.042;8.968;2023-05-10T13:59:56;25.80;59.10
30999;DHT22;20549;50.042;8.968;2023-05-10T14:02:23;25.80;59.00
30999;DHT22;20549;50.042;8.968;2023-05-10T14:04:50;25.80;58.90
30999;DHT22;20549;50.042;8.968;2023-05-10T14:07:16;25.80;58.20
30999;DHT22;20549;50.042;8.968;2023-05-10T14:09:43;25.90;58.60
30999;DHT22;20549;50.042;8.968;2023-05-10T14:12:09;25.90;58.80
30999;DHT22;20549;50.042;8.968;2023-05-10T14:14:36;25.90;58.10
30999;DHT22;20549;50.042;8.968;2023-05-10T14:17:02;25.90;57.70
30999;DHT22;20549;50.042;8.968;2023-05-10T14:19:29;25.90;57.50
30999;DHT22;20549;50.042;8.968;2023-05-10T14:21:56;25.80;57.30
30999;DHT22;20549;50.042;8.968;2023-05-10T14:24:22;25.70;57.10
30999;DHT22;20549;50.042;8.968;2023-05-10T14:26:49;25.60;57.00
30999;DHT22;20549;50.042;8.968;2023-05-10T14:29:15;25.50;56.80
30999;DHT22;20549;50.042;8.968;2023-05-10T14:31:42;25.40;56.90
30999;DHT22;20549;50.042;8.968;2023-05-10T14:34:09;25.30;56.90
30999;DHT22;20549;50.042;8.968;2023-05-10T14:36:35;25.20;56.90
30999;DHT22;20549;50.042;8.968;2023-05-10T14:39:02;25.10;56.80
30999;DHT22;20549;50.042;8.968;2023-05-10T14:41:28;24.90;57.00
30999;DHT22;20549;50.042;8.968;2023-05-10T14:43:55;24.90;57.30
30999;DHT22;20549;50.042;8.968;2023-05-10T14:46:22;24.90;57.30
30999;DHT22;20549;50.042;8.968;2023-05-10T14:48:48;24.90;57.40
30999;DHT22;20549;50.042;8.968;2023-05-10T14:51:15;24.90;57.30
30999;DHT22;20549;50.042;8.968;2023-05-10T14:53:42;24.90;57.70
30999;DHT22;20549;50.042;8.968;2023-05-10T14:56:08;25.00;57.00
30999;DHT22;20549;50.042;8.968;2023-05-10T14:58:35;25.00;56.70
30999;DHT22;20549;50.042;8.968;2023-05-10T15:01:01;25.00;56.50
30999;DHT22;20549;50.042;8.968;2023-05-10T15:03:28;25.00;56.40
30999;DHT22;20549;50.042;8.968;2023-05-10T15:05:54;25.00;56.40
30999;DHT22;20549;50.042;8.968;2023-05-10T15:08:21;25.00;56.50
30999;DHT22;20549;50.042;8.968;2023-05-10T15:10:47;25.00;56.50
30999;DHT22;20549;50.042;8.968;2023-05-10T15:13:14;25.00;56.50
30999;DHT22;20549;50.042;8.968;2023-05-10T15:15:41;25.00;56.40
30999;DHT22;20549;50.042;8.968;2023-05-10T15:18:08;25.10;56.30
30999;DHT22;20549;50.042;8.968;2023-05-10T15:20:34;25.00;56.40
30999;DHT22;20549;50.042;8.968;2023-05-10T15:23:00;25.10;56.30
30999;DHT22;20549;50.042;8.968;2023-05-10T15:25:27;25.10;56.20
30999;DHT22;20549;50.042;8.968;2023-05-10T15:27:54;25.10;56.00
30999;DHT22;20549;50.042;8.968;2023-05-10T15:30:20;25.10;56.00
30999;DHT22;20549;50.042;8.968;2023-05-10T15:32:47;25.00;56.00
30999;DHT22;20549;50.042;8.968;2023-05-10T15:35:13;25.00;55.90
30999;DHT22;20549;50.042;8.968;2023-05-10T15:37:40;25.00;55.70
30999;DHT22;20549;50.042;8.968;2023-05-10T15:40:07;24.90;55.60
30999;DHT22;20549;50.042;8.968;2023-05-10T15:42:33;24.80;55.60
30999;DHT22;20549;50.042;8.968;2023-05-10T15:45:00;24.70;55.60
30999;DHT22;20549;50.042;8.968;2023-05-10T15:47:26;24.70;55.70
30999;DHT22;20549;50.042;8.968;2023-05-10T15:49:53;24.60;55.90
30999;DHT22;20549;50.042;8.968;2023-05-10T15:52:20;24.50;56.00
30999;DHT22;20549;50.042;8.968;2023-05-10T15:54:46;24.50;56.00